Time;durP1;ratioP1;P1;durP2;ratioP2;P2;SDS_P1;SDS_P2;PMS_P1;PMS_P2;Temp;Humidity;BMP_temperature;BMP_pressure;BME280_temperature;BME280_humidity;BME280_pressure;Samples;Min_cycle;Max_cycle;Signal;HPM_P1;HPM_P2
2022/04/30 00:02:07;;;;;;;7.50;4.70;;;11.20;99.90;;;;;;5061969;28;20049;-71
2022/04/30 00:04:43;;;;;;;12.60;5.15;;;11.30;99.90;;;;;;5060669;28;20071;-69
2022/04/30 00:07:12;;;;;;;7.03;4.88;;;11.30;99.90;;;;;;5058978;28;20159;-71
2022/04/30 00:09:38;;;;;;;6.97;5.53;;;11.20;99.90;;;;;;5042891;28;20129;-70
2022/04/30 00:12:04;;;;;;;7.50;5.45;;;11.20;99.90;;;;;;5060765;28;20539;-70
2022/04/30 00:14:30;;;;;;;9.70;5.68;;;11.30;99.90;;;;;;5060039;28;20119;-69
2022/04/30 00:16:56;;;;;;;15.82;5.53;;;11.30;99.90;;;;;;5060912;28;20163;-71
2022/04/30 00:19:23;;;;;;;6.43;5.40;;;11.40;99.90;;;;;;5061604;28;20503;-70
2022/04/30 00:21:52;;;;;;;7.07;5.05;;;11.20;99.90;;;;;;5062093;28;20084;-70
2022/04/30 00:24:18;;;;;;;6.03;4.63;;;11.00;99.90;;;;;;5064284;28;20500;-70
2022/04/30 00:26:44;;;;;;;8.77;5.85;;;10.80;99.90;;;;;;5047447;28;20177;-70
2022/04/30 00:29:10;;;;;;;8.23;5.40;;;10.90;99.90;;;;;;5063539;28;20102;-70
2022/04/30 00:31:37;;;;;;;5.97;4.55;;;11.00;99.90;;;;;;5064592;28;20119;-70
2022/04/30 00:34:03;;;;;;;5.32;4.43;;;10.50;99.90;;;;;;5065539;28;20041;-70
2022/04/30 00:36:29;;;;;;;8.63;5.20;;;10.30;99.90;;;;;;5063475;28;20044;-71
2022/04/30 00:38:55;;;;;;;5.85;4.70;;;10.20;99.90;;;;;;5064547;28;20052;-70
2022/04/30 00:41:23;;;;;;;6.28;4.90;;;10.40;99.90;;;;;;5069178;28;20028;-70
2022/04/30 00:43:51;;;;;;;7.95;5.38;;;10.60;99.90;;;;;;5066056;28;20041;-70
2022/04/30 00:46:18;;;;;;;7.38;4.88;;;;;;;;;;5064131;28;20098;-72
2022/04/30 00:48:44;;;;;;;6.78;5.22;;;10.90;99.90;;;;;;5065353;28;20040;-70
2022/04/30 00:51:15;;;;;;;5.40;4.45;;;11.10;99.90;;;;;;5064266;28;20044;-70
2022/04/30 00:53:43;;;;;;;;;;;11.20;99.90;;;;;;5065180;28;20048;-70
2022/04/30 00:56:12;;;;;;;8.70;4.75;;;10.90;99.90;;;;;;5062927;28;19991;-70
2022/04/30 00:58:42;;;;;;;7.47;4.72;;;10.70;99.90;;;;;;5063629;28;20045;-70
2022/04/30 01:01:08;;;;;;;;;;;10.50;99.90;;;;;;5065520;28;20467;-70
2022/04/30 01:03:34;;;;;;;4.97;4.18;;;10.40;99.90;;;;;;5045729;28;19948;-70
2022/04/30 01:06:01;;;;;;;5.13;4.32;;;10.50;99.90;;;;;;5063478;28;20123;-70
2022/04/30 01:08:28;;;;;;;9.18;4.90;;;10.70;99.90;;;;;;5064729;28;20052;-70
2022/04/30 01:10:54;;;;;;;4.70;3.92;;;10.80;99.90;;;;;;5063217;28;20065;-70
2022/04/30 01:13:20;;;;;;;5.43;4.13;;;10.80;99.90;;;;;;5062987;28;20079;-70
2022/04/30 01:15:46;;;;;;;13.25;4.45;;;10.50;99.90;;;;;;5064614;28;20068;-70
2022/04/30 01:18:12;;;;;;;5.90;4.18;;;10.40;99.90;;;;;;5062957;28;20544;-70
2022/04/30 01:20:51;;;;;;;7.28;4.32;;;10.20;99.90;;;;;;5063504;28;20037;-70
2022/04/30 01:23:18;;;;;;;5.10;4.13;;;10.30;99.90;;;;;;5063517;28;20124;-70
2022/04/30 01:25:46;;;;;;;7.38;4.63;;;10.20;99.90;;;;;;5062417;28;20032;-70
2022/04/30 01:28:12;;;;;;;5.25;4.40;;;10.20;99.90;;;;;;5062419;28;20454;-70
2022/04/30 01:30:38;;;;;;;4.85;4.35;;;10.20;99.90;;;;;;5063059;28;20391;-71
2022/04/30 01:38:33;;;;;;;9.18;4.75;;;10.20;99.90;;;;;;5063763;28;20082;-70
2022/04/30 01:40:59;;;;;;;8.02;4.68;;;10.00;99.90;;;;;;5063462;28;20063;-70
2022/04/30 01:43:27;;;;;;;6.75;4.47;;;9.80;99.90;;;;;;5061907;28;20500;-70
2022/04/30 01:45:54;;;;;;;6.95;4.30;;;9.80;99.90;;;;;;5063386;28;20465;-70
2022/04/30 01:48:20;;;;;;;6.78;4.60;;;9.80;99.90;;;;;;5063417;28;20064;-70
2022/04/30 01:50:46;;;;;;;8.70;4.20;;;9.70;99.90;;;;;;5061835;28;20029;-70
2022/04/30 01:53:12;;;;;;;7.07;4.80;;;9.80;99.90;;;;;;5063585;28;20055;-70
2022/04/30 01:55:38;;;;;;;8.80;5.28;;;9.70;99.90;;;;;;5063016;28;20033;-70
2022/04/30 01:58:05;;;;;;;6.30;4.35;;;9.50;99.90;;;;;;5061783;28;20717;-70
2022/04/30 02:00:35;;;;;;;7.97;4.57;;;9.50;99.90;;;;;;5054925;28;20408;-70
2022/04/30 02:03:09;;;;;;;7.78;4.30;;;9.70;99.90;;;;;;5060981;28;20524;-70
2022/04/30 02:05:36;;;;;;;7.32;4.30;;;9.80;99.90;;;;;;5063645;28;20086;-70
2022/04/30 02:08:03;;;;;;;6.20;4.40;;;9.80;99.90;;;;;;5067319;28;20072;-70
2022/04/30 02:10:29;;;;;;;6.30;4.10;;;9.60;99.90;;;;;;5063536;28;20044;-70
2022/04/30 02:12:56;;;;;;;9.52;5.22;;;8.90;99.90;;;;;;5064960;28;20029;-70
2022/04/30 02:15:23;;;;;;;7.60;4.78;;;8.80;99.90;;;;;;5061850;28;20404;-70
2022/04/30 02:17:50;;;;;;;8.25;4.28;;;8.40;99.90;;;;;;5063383;28;20123;-71
2022/04/30 02:20:28;;;;;;;7.43;4.30;;;8.80;99.90;;;;;;5062372;28;20064;-70
2022/04/30 02:23:05;;;;;;;13.50;4.30;;;8.90;99.90;;;;;;5061844;28;20044;-70
2022/04/30 02:25:31;;;;;;;8.02;4.15;;;9.00;99.90;;;;;;5061373;28;20381;-69
2022/04/30 02:28:04;;;;;;;8.32;4.47;;;9.10;99.90;;;;;;5062164;28;20102;-70
2022/04/30 02:30:32;;;;;;;7.25;4.60;;;9.10;99.90;;;;;;5061150;28;20413;-70
2022/04/30 02:33:05;;;;;;;8.13;4.55;;;9.10;99.90;;;;;;5062170;28;20040;-69
2022/04/30 02:35:34;;;;;;;12.90;4.53;;;9.20;99.90;;;;;;5061123;28;20052;-70
2022/04/30 02:38:01;;;;;;;8.38;4.90;;;9.20;99.90;;;;;;5068955;28;20874;-69
2022/04/30 02:40:29;;;;;;;9.20;4.60;;;9.10;99.90;;;;;;5060978;28;20063;-70
2022/04/30 02:43:02;;;;;;;7.90;4.32;;;9.00;99.90;;;;;;5065272;28;20037;-69
2022/04/30 02:45:28;;;;;;;7.72;4.30;;;9.20;99.90;;;;;;5062757;28;20041;-69
2022/04/30 02:47:56;;;;;;;10.55;3.75;;;9.20;99.90;;;;;;5061160;28;20493;-69
2022/04/30 02:50:22;;;;;;;8.90;3.97;;;9.10;99.90;;;;;;5061049;28;20036;-69
2022/04/30 02:52:48;;;;;;;9.20;4.30;;;9.20;99.90;;;;;;5062783;28;20526;-69
2022/04/30 02:55:14;;;;;;;12.18;4.97;;;9.10;99.90;;;;;;5061421;28;20052;-69
2022/04/30 03:00:41;;;;;;;6.75;4.40;;;9.20;99.90;;;;;;5060016;28;20079;-70
2022/04/30 03:03:09;;;;;;;10.07;3.88;;;9.30;99.90;;;;;;5052748;28;20044;-69
2022/04/30 03:05:35;;;;;;;8.65;4.47;;;9.30;99.90;;;;;;5053110;28;20036;-70
2022/04/30 03:08:07;;;;;;;11.35;4.63;;;9.30;99.90;;;;;;5053044;28;20419;-70
2022/04/30 03:10:33;;;;;;;8.85;4.40;;;9.30;99.90;;;;;;5052900;28;20377;-69
2022/04/30 03:12:59;;;;;;;9.73;3.90;;;9.40;99.90;;;;;;5052952;28;20094;-70
2022/04/30 03:15:27;;;;;;;8.45;4.35;;;9.40;99.90;;;;;;5052812;28;20029;-70
2022/04/30 03:23:21;;;;;;;12.20;4.15;;;9.50;99.90;;;;;;5052846;28;20404;-69
2022/04/30 03:25:47;;;;;;;12.55;5.88;;;9.40;99.90;;;;;;5052665;28;20041;-69
2022/04/30 03:28:13;;;;;;;7.38;4.75;;;9.30;99.90;;;;;;5052377;28;20049;-69
2022/04/30 03:30:38;;;;;;;12.73;4.00;;;9.30;99.90;;;;;;5052621;28;20033;-70
2022/04/30 03:33:08;;;;;;;9.00;4.80;;;9.50;99.90;;;;;;5052647;28;20053;-69
2022/04/30 03:35:37;;;;;;;6.00;4.18;;;9.40;99.90;;;;;;5052484;28;20484;-70
2022/04/30 03:38:02;;;;;;;7.80;3.83;;;9.40;99.90;;;;;;5052429;28;20044;-70
2022/04/30 03:40:28;;;;;;;6.70;4.10;;;9.40;99.90;;;;;;5052492;28;20523;-70
2022/04/30 03:42:54;;;;;;;9.10;4.90;;;9.50;99.90;;;;;;5052692;28;20053;-70
2022/04/30 03:45:20;;;;;;;10.38;4.63;;;9.40;99.90;;;;;;5052478;28;20040;-70
2022/04/30 03:47:46;;;;;;;11.30;5.10;;;8.80;99.90;;;;;;5052376;28;20135;-70
2022/04/30 03:50:11;;;;;;;9.10;3.78;;;8.90;99.90;;;;;;5052493;28;20041;-70
2022/04/30 03:52:37;;;;;;;14.23;4.72;;;9.00;99.90;;;;;;5052674;28;20047;-70
2022/04/30 03:55:03;;;;;;;7.07;3.55;;;9.10;99.90;;;;;;5052566;28;20044;-70
2022/04/30 03:57:29;;;;;;;11.70;4.45;;;9.20;99.90;;;;;;5056923;28;20041;-69
2022/04/30 03:59:56;;;;;;;10.15;4.03;;;9.40;99.90;;;;;;5057826;28;20144;-69
2022/04/30 04:02:23;;;;;;;8.52;4.38;;;9.50;99.90;;;;;;5056194;28;20064;-69
2022/04/30 04:04:52;;;;;;;11.88;4.88;;;9.60;99.90;;;;;;5056248;28;20087;-69
2022/04/30 04:07:19;;;;;;;9.27;4.22;;;9.50;99.90;;;;;;5056206;28;20377;-69
2022/04/30 04:09:45;;;;;;;9.98;4.10;;;9.40;99.90;;;;;;5056117;28;20053;-69
2022/04/30 04:12:11;;;;;;;10.98;4.32;;;9.40;99.90;;;;;;5055994;28;20037;-70
2022/04/30 04:17:40;;;;;;;11.07;3.83;;;9.80;99.90;;;;;;5056048;28;20043;-70
2022/04/30 04:20:13;;;;;;;6.72;4.05;;;9.90;99.90;;;;;;5055915;28;20392;-69
2022/04/30 04:22:40;;;;;;;6.05;4.00;;;9.40;99.90;;;;;;5056062;28;20068;-69
2022/04/30 04:27:55;;;;;;;7.28;3.97;;;9.20;99.90;;;;;;5055647;28;20146;-70
2022/04/30 04:30:30;;;;;;;8.20;3.95;;;9.30;99.90;;;;;;5055727;28;20068;-70
2022/04/30 04:32:57;;;;;;;9.93;4.57;;;9.20;99.90;;;;;;5055713;28;20037;-69
2022/04/30 04:35:23;;;;;;;9.85;4.15;;;9.10;99.90;;;;;;5056011;28;20033;-69
2022/04/30 04:37:49;;;;;;;6.25;3.88;;;9.10;99.90;;;;;;5055794;28;20048;-69
2022/04/30 04:40:16;;;;;;;5.95;3.83;;;9.10;99.90;;;;;;5055695;28;20040;-69
2022/04/30 04:42:42;;;;;;;8.15;3.95;;;9.20;99.90;;;;;;5055762;28;20098;-69
2022/04/30 04:45:09;;;;;;;5.30;4.05;;;9.10;99.90;;;;;;5062745;28;20068;-69
2022/04/30 04:47:39;;;;;;;8.00;3.75;;;9.10;99.90;;;;;;5068752;28;20052;-69
2022/04/30 04:50:07;;;;;;;7.57;4.07;;;9.20;99.90;;;;;;5075828;28;20028;-69
2022/04/30 04:52:33;;;;;;;8.40;4.07;;;9.30;99.90;;;;;;5075641;28;20043;-69
2022/04/30 04:54:58;;;;;;;6.38;3.53;;;9.30;99.90;;;;;;5075542;28;20462;-70
2022/04/30 04:57:24;;;;;;;7.35;3.75;;;9.40;99.90;;;;;;5075275;28;20145;-69
2022/04/30 04:59:51;;;;;;;7.50;3.92;;;9.30;99.90;;;;;;5075382;28;20071;-69
2022/04/30 05:02:18;;;;;;;5.65;3.53;;;9.30;99.90;;;;;;5075401;28;20075;-69
2022/04/30 05:04:43;;;;;;;5.00;3.45;;;9.50;99.90;;;;;;5075277;28;20169;-69
2022/04/30 05:07:09;;;;;;;5.75;3.90;;;9.50;99.90;;;;;;5073723;28;20135;-69
2022/04/30 05:09:35;;;;;;;7.90;3.63;;;9.50;99.90;;;;;;5074924;28;20039;-70
2022/04/30 05:12:01;;;;;;;8.85;4.00;;;9.40;99.90;;;;;;5057045;28;20538;-69
2022/04/30 05:14:33;;;;;;;7.65;3.75;;;9.20;99.90;;;;;;5074926;28;20036;-70
2022/04/30 05:17:00;;;;;;;5.72;3.60;;;9.20;99.90;;;;;;5074818;28;20123;-69
2022/04/30 05:19:26;;;;;;;4.95;3.35;;;9.20;99.90;;;;;;5074596;28;20124;-69
2022/04/30 05:21:51;;;;;;;9.63;3.65;;;9.30;99.90;;;;;;5074990;28;20068;-69
2022/04/30 05:24:17;;;;;;;4.70;3.42;;;9.30;99.90;;;;;;5074927;28;20044;-69
2022/04/30 05:26:43;;;;;;;14.73;3.92;;;9.40;99.90;;;;;;5074726;28;20598;-69
2022/04/30 05:29:08;;;;;;;6.35;3.33;;;9.50;99.90;;;;;;5074811;28;20127;-69
2022/04/30 05:31:34;;;;;;;7.30;3.85;;;9.50;99.90;;;;;;5074755;28;20115;-69
2022/04/30 05:34:00;;;;;;;12.65;4.10;;;9.70;99.90;;;;;;5074562;28;20072;-70
2022/04/30 05:36:26;;;;;;;8.02;3.72;;;10.00;99.90;;;;;;5074593;28;20068;-69
2022/04/30 05:38:52;;;;;;;3.92;3.17;;;10.20;99.90;;;;;;5074604;28;20455;-69
2022/04/30 05:41:18;;;;;;;6.90;3.75;;;10.30;99.90;;;;;;5074301;28;20041;-70
2022/04/30 05:43:44;;;;;;;9.65;4.72;;;10.50;99.90;;;;;;5074296;28;20040;-70
2022/04/30 05:46:12;;;;;;;8.90;3.60;;;10.50;99.90;;;;;;5074054;28;20048;-69
2022/04/30 05:48:38;;;;;;;6.65;3.60;;;10.70;99.90;;;;;;5074142;28;20127;-70
2022/04/30 05:51:04;;;;;;;7.40;3.60;;;11.00;99.90;;;;;;5073995;28;20123;-69
2022/04/30 05:53:30;;;;;;;4.57;3.22;;;11.10;99.90;;;;;;5073880;28;20040;-70
2022/04/30 05:55:56;;;;;;;9.85;3.92;;;10.60;99.90;;;;;;5073926;28;20085;-69
2022/04/30 05:58:22;;;;;;;7.80;4.05;;;10.90;99.90;;;;;;5057463;28;20045;-70
2022/04/30 06:00:48;;;;;;;5.95;3.50;;;11.30;99.90;;;;;;5053948;28;20055;-70
2022/04/30 06:03:13;;;;;;;7.15;3.20;;;11.40;99.90;;;;;;5056779;28;20504;-70
2022/04/30 06:05:42;;;;;;;5.00;3.15;;;11.80;99.90;;;;;;5066825;28;20044;-70
2022/04/30 06:08:09;;;;;;;7.18;3.35;;;12.00;99.90;;;;;;5054058;28;20067;-70
2022/04/30 06:10:36;;;;;;;5.10;3.33;;;12.10;99.90;;;;;;5053984;28;20376;-71
2022/04/30 06:13:02;;;;;;;5.20;3.42;;;12.60;99.90;;;;;;5054034;28;20048;-70
2022/04/30 06:15:33;;;;;;;9.57;3.40;;;13.10;99.90;;;;;;5071909;28;20126;-70
2022/04/30 06:18:02;;;;;;;4.72;3.03;;;12.80;99.90;;;;;;5071075;28;20063;-71
2022/04/30 06:20:30;;;;;;;5.75;3.13;;;12.90;99.90;;;;;;5053484;28;20032;-70
2022/04/30 06:22:56;;;;;;;8.55;3.25;;;13.50;99.90;;;;;;5071428;28;20040;-71
2022/04/30 06:25:22;;;;;;;5.35;2.90;;;13.60;99.90;;;;;;5072126;28;20515;-71
2022/04/30 06:27:49;;;;;;;5.30;2.35;;;13.30;99.90;;;;;;5072940;28;20056;-70
2022/04/30 06:30:16;;;;;;;6.70;2.95;;;13.80;99.90;;;;;;5055562;28;20497;-71
2022/04/30 06:32:43;;;;;;;4.15;2.70;;;14.50;99.90;;;;;;5072275;28;20067;-70
2022/04/30 06:35:14;;;;;;;8.60;3.42;;;14.90;99.90;;;;;;5070563;28;20068;-70
2022/04/30 06:37:52;;;;;;;3.85;2.70;;;14.20;99.90;;;;;;5055309;28;20656;-71
2022/04/30 06:40:18;;;;;;;4.07;2.67;;;14.80;99.90;;;;;;5071265;28;20032;-71
2022/04/30 06:42:45;;;;;;;6.50;2.60;;;14.60;99.90;;;;;;5071853;28;20056;-72
2022/04/30 06:45:13;;;;;;;8.10;3.17;;;15.60;99.90;;;;;;5053473;28;20094;-71
2022/04/30 06:47:39;;;;;;;6.78;3.03;;;14.10;99.90;;;;;;5067997;28;20090;-72
2022/04/30 06:50:07;;;;;;;4.57;2.80;;;14.50;99.90;;;;;;5071143;28;20036;-72
2022/04/30 06:52:33;;;;;;;9.40;2.55;;;15.00;99.90;;;;;;5071794;28;20048;-72
2022/04/30 06:57:47;;;;;;;5.95;3.38;;;15.00;99.90;;;;;;5070986;28;20082;-72
2022/04/30 07:03:03;;;;;;;6.05;3.20;;;16.20;99.90;;;;;;5071094;28;20125;-71
2022/04/30 07:05:29;;;;;;;5.82;3.85;;;16.40;99.90;;;;;;5071186;28;20123;-72
2022/04/30 07:07:59;;;;;;;8.43;4.18;;;16.50;99.90;;;;;;5070248;28;20056;-72
2022/04/30 07:10:25;;;;;;;4.95;3.25;;;16.20;99.90;;;;;;5071194;28;20066;-72
2022/04/30 07:12:50;;;;;;;6.72;2.80;;;16.20;99.90;;;;;;5070552;28;20041;-72
2022/04/30 07:15:16;;;;;;;5.85;2.78;;;16.30;99.90;;;;;;5070893;28;20033;-72
2022/04/30 07:17:46;;;;;;;3.28;2.58;;;16.40;99.90;;;;;;5071547;28;20036;-72
2022/04/30 07:20:12;;;;;;;6.88;2.60;;;16.50;99.90;;;;;;5054314;28;20045;-72
2022/04/30 07:22:38;;;;;;;6.80;2.70;;;16.20;99.90;;;;;;5071125;28;20048;-72
2022/04/30 07:25:06;;;;;;;4.40;2.95;;;16.80;99.90;;;;;;5070726;28;20110;-71
2022/04/30 07:27:32;;;;;;;7.75;2.65;;;16.80;99.90;;;;;;5070928;28;20056;-72
2022/04/30 07:29:59;;;;;;;5.03;2.55;;;17.10;99.90;;;;;;5070747;28;20040;-71
2022/04/30 07:32:25;;;;;;;5.95;2.42;;;17.20;99.90;;;;;;5074555;28;20040;-72
2022/04/30 07:34:56;;;;;;;9.45;2.88;;;17.40;99.90;;;;;;5074953;28;20090;-72
2022/04/30 07:37:25;;;;;;;3.58;2.33;;;17.10;99.90;;;;;;5059428;28;20571;-72
2022/04/30 07:39:53;;;;;;;6.07;2.70;;;17.50;99.90;;;;;;5074053;28;20072;-71
2022/04/30 07:42:19;;;;;;;3.90;2.40;;;17.70;99.90;;;;;;5073962;28;20508;-71
2022/04/30 07:44:47;;;;;;;3.83;2.63;;;17.20;99.90;;;;;;5074621;28;20048;-72
2022/04/30 07:47:13;;;;;;;7.63;3.30;;;17.50;99.90;;;;;;5074322;28;20040;-72
2022/04/30 07:49:41;;;;;;;5.47;3.13;;;17.20;99.90;;;;;;5074825;28;20040;-72
2022/04/30 07:52:09;;;;;;;4.90;2.97;;;17.40;99.90;;;;;;5076544;28;20448;-72
2022/04/30 07:54:35;;;;;;;5.82;2.88;;;17.10;99.90;;;;;;5073626;28;20032;-73
2022/04/30 07:57:04;;;;;;;6.75;3.00;;;16.60;99.90;;;;;;5072982;28;20044;-72
2022/04/30 07:59:30;;;;;;;5.47;2.90;;;17.40;99.90;;;;;;5054612;28;20037;-72
2022/04/30 08:01:59;;;;;;;10.25;3.63;;;16.90;99.90;;;;;;5054093;28;20045;-72
2022/04/30 08:04:25;;;;;;;4.50;2.70;;;16.70;99.90;;;;;;5055106;28;20102;-73
2022/04/30 08:06:51;;;;;;;5.65;3.28;;;16.70;99.90;;;;;;5056010;28;20057;-72
2022/04/30 08:09:17;;;;;;;7.45;3.35;;;17.60;99.90;;;;;;5057340;28;20450;-72
2022/04/30 08:11:43;;;;;;;7.00;3.08;;;16.20;99.90;;;;;;5066541;28;20130;-72
2022/04/30 08:14:10;;;;;;;5.63;3.15;;;16.80;99.90;;;;;;5072891;28;20024;-73
2022/04/30 08:16:36;;;;;;;4.50;2.72;;;17.00;99.90;;;;;;5073950;28;20028;-72
2022/04/30 08:19:03;;;;;;;8.77;3.63;;;16.50;99.90;;;;;;5073842;28;20048;-72
2022/04/30 08:21:32;;;;;;;7.38;3.20;;;17.00;99.90;;;;;;5073928;28;20037;-72
2022/04/30 08:23:58;;;;;;;4.60;3.08;;;16.60;99.90;;;;;;5073909;28;20408;-72
2022/04/30 08:26:23;;;;;;;4.45;3.28;;;16.30;99.90;;;;;;5074108;28;20044;-72
2022/04/30 08:28:49;;;;;;;7.80;3.05;;;16.10;99.90;;;;;;5073466;28;20098;-72
2022/04/30 08:31:15;;;;;;;4.65;3.22;;;16.30;99.90;;;;;;5074429;28;20044;-72
2022/04/30 08:33:41;;;;;;;6.40;2.88;;;16.30;99.90;;;;;;5074311;28;20439;-71
2022/04/30 08:36:07;;;;;;;6.38;2.88;;;17.20;99.90;;;;;;5073069;28;20427;-71
2022/04/30 08:38:33;;;;;;;4.78;2.97;;;17.60;99.90;;;;;;5057578;28;20048;-71
2022/04/30 08:40:59;;;;;;;7.45;3.05;;;17.70;99.90;;;;;;5054922;28;20064;-72
2022/04/30 08:43:28;;;;;;;7.80;3.58;;;17.20;99.90;;;;;;5034729;28;20075;-71
2022/04/30 08:45:54;;;;;;;4.60;3.40;;;17.10;99.90;;;;;;5053518;28;20039;-72
2022/04/30 08:48:20;;;;;;;7.47;3.63;;;17.50;99.90;;;;;;5053796;28;20052;-72
2022/04/30 08:50:47;;;;;;;4.82;2.72;;;18.20;99.90;;;;;;5054119;28;20033;-72
2022/04/30 08:53:14;;;;;;;4.35;3.00;;;17.90;99.70;;;;;;5053707;28;20829;-73
2022/04/30 08:55:40;;;;;;;4.43;3.10;;;18.30;99.90;;;;;;5053689;28;20555;-73
2022/04/30 08:58:06;;;;;;;7.93;4.15;;;18.10;99.90;;;;;;5054528;28;20098;-73
2022/04/30 09:00:45;;;;;;;4.53;3.17;;;18.00;99.90;;;;;;5055136;28;20041;-73
2022/04/30 09:03:17;;;;;;;6.97;3.58;;;18.30;99.90;;;;;;5053809;28;20112;-70
2022/04/30 09:05:44;;;;;;;7.07;3.42;;;18.50;99.90;;;;;;5053495;28;20049;-71
2022/04/30 09:08:10;;;;;;;6.55;3.03;;;18.60;99.90;;;;;;5052822;28;20067;-71
2022/04/30 09:10:42;;;;;;;7.50;3.33;;;18.50;99.90;;;;;;5053080;28;20041;-71
2022/04/30 09:13:16;;;;;;;5.78;3.10;;;17.70;99.90;;;;;;5053375;28;20048;-72
2022/04/30 09:15:46;;;;;;;6.35;2.80;;;18.80;99.90;;;;;;5052705;28;20117;-72
2022/04/30 09:18:13;;;;;;;;;;;17.70;99.10;;;;;;5052575;28;20040;-72
2022/04/30 09:20:47;;;;;;;6.70;3.53;;;17.50;99.90;;;;;;5053094;28;19909;-72
2022/04/30 09:23:30;;;;;;;10.48;3.70;;;16.70;99.90;;;;;;5052042;28;20040;-71
2022/04/30 09:25:58;;;;;;;9.05;4.85;;;16.50;99.90;;;;;;5052730;28;20037;-70
2022/04/30 09:28:28;;;;;;;7.13;3.78;;;17.10;99.90;;;;;;5052079;28;20109;-71
2022/04/30 09:31:23;;;;;;;5.47;4.13;;;16.80;99.90;;;;;;5053746;28;20124;-71
2022/04/30 09:33:49;;;;;;;6.18;4.15;;;16.70;99.90;;;;;;5036396;28;20452;-72
2022/04/30 09:38:59;;;;;;;5.53;3.35;;;16.40;99.90;;;;;;5066594;28;20042;-72
2022/04/30 09:41:26;;;;;;;6.28;3.85;;;16.20;99.90;;;;;;5072203;28;20036;-72
2022/04/30 09:44:07;;;;;;;9.93;3.95;;;16.40;99.90;;;;;;5072431;28;20033;-72
2022/04/30 09:46:37;;;;;;;8.80;3.83;;;16.10;99.90;;;;;;5072249;28;20078;-73
2022/04/30 09:54:46;;;;;;;8.35;4.50;;;16.60;99.90;;;;;;5061782;28;20135;-73
2022/04/30 09:57:17;;;;;;;5.53;3.58;;;17.20;99.90;;;;;;5059792;28;20079;-73
2022/04/30 09:59:47;;;;;;;6.28;4.07;;;17.40;99.90;;;;;;5063449;28;20510;-72
2022/04/30 10:02:16;;;;;;;8.70;4.38;;;18.10;99.90;;;;;;5056482;28;20040;-72
2022/04/30 10:04:44;;;;;;;6.93;4.18;;;17.50;99.90;;;;;;5052798;28;20072;-73
2022/04/30 10:07:11;;;;;;;8.52;4.93;;;16.70;99.90;;;;;;5054486;28;20056;-72
2022/04/30 10:09:42;;;;;;;7.97;4.60;;;16.50;99.90;;;;;;5052184;28;20103;-73
2022/04/30 10:12:11;;;;;;;;;;;16.10;99.90;;;;;;5067201;28;20048;-72
2022/04/30 10:15:14;;;;;;;9.93;5.38;;;16.00;99.90;;;;;;5071989;28;19995;-73
2022/04/30 10:17:42;;;;;;;9.57;5.07;;;16.10;99.90;;;;;;5052870;28;20041;-72
2022/04/30 10:20:18;;;;;;;7.22;4.82;;;16.20;99.90;;;;;;5051473;28;20037;-73
2022/04/30 10:22:59;;;;;;;9.05;5.28;;;16.30;99.90;;;;;;5052016;28;20051;-72
2022/04/30 10:25:42;;;;;;;7.93;4.93;;;16.10;99.90;;;;;;5052455;28;20563;-72
2022/04/30 10:28:18;;;;;;;8.00;5.03;;;16.50;99.90;;;;;;5052850;28;20049;-72
2022/04/30 10:31:17;;;;;;;6.18;5.00;;;16.70;99.90;;;;;;5060281;28;20117;-71
2022/04/30 10:33:50;;;;;;;8.02;5.07;;;17.10;99.90;;;;;;5007143;28;20032;-72
2022/04/30 10:36:18;;;;;;;8.50;4.63;;;16.70;99.90;;;;;;5066856;28;20655;-70
2022/04/30 10:38:54;;;;;;;7.55;4.80;;;16.50;99.90;;;;;;5070799;28;20045;-71
2022/04/30 10:41:20;;;;;;;10.02;5.68;;;16.80;99.70;;;;;;5067101;28;20044;-70
2022/04/30 10:43:46;;;;;;;12.52;4.85;;;17.20;99.40;;;;;;5071276;28;20040;-71
2022/04/30 10:46:21;;;;;;;13.27;4.63;;;17.60;98.00;;;;;;5060681;28;20053;-71
2022/04/30 10:48:47;;;;;;;6.60;4.65;;;17.60;99.00;;;;;;5067171;28;20059;-71
2022/04/30 10:51:16;;;;;;;10.40;4.55;;;17.40;97.80;;;;;;5056428;28;20041;-72
2022/04/30 10:53:46;;;;;;;8.15;5.43;;;17.40;98.70;;;;;;5071267;28;20040;-72
2022/04/30 10:56:13;;;;;;;7.97;4.95;;;16.50;99.10;;;;;;5051667;28;20041;-72
2022/04/30 10:58:42;;;;;;;6.47;4.45;;;16.40;99.90;;;;;;5051363;28;20095;-71
2022/04/30 11:01:16;;;;;;;6.05;4.45;;;16.20;99.30;;;;;;5050479;28;20040;-71
2022/04/30 11:03:49;;;;;;;9.70;4.97;;;16.30;99.60;;;;;;5068288;28;20094;-71
2022/04/30 11:06:21;;;;;;;8.23;4.78;;;16.10;99.50;;;;;;5054997;28;20041;-71
2022/04/30 11:09:16;;;;;;;6.18;5.05;;;16.60;99.90;;;;;;5070925;28;20045;-71
2022/04/30 11:11:46;;;;;;;11.18;5.15;;;16.20;99.90;;;;;;5048008;28;20545;-71
2022/04/30 11:14:12;;;;;;;13.00;7.20;;;16.10;99.90;;;;;;5063336;28;20047;-71
2022/04/30 11:16:44;;;;;;;9.98;4.85;;;16.10;99.90;;;;;;5065986;28;20125;-71
2022/04/30 11:19:12;;;;;;;14.98;4.65;;;16.00;99.90;;;;;;5061464;28;20119;-71
2022/04/30 11:21:41;;;;;;;10.20;4.72;;;16.10;99.00;;;;;;5056255;28;20052;-71
2022/04/30 11:24:08;;;;;;;8.07;4.25;;;16.10;98.00;;;;;;5050105;28;20543;-71
2022/04/30 11:26:42;;;;;;;9.65;5.10;;;16.30;98.30;;;;;;5050456;28;20504;-71
2022/04/30 11:29:12;;;;;;;12.27;5.60;;;16.80;98.80;;;;;;5066285;28;20127;-70
2022/04/30 11:31:40;;;;;;;7.22;4.75;;;17.20;99.10;;;;;;5052889;28;20373;-71
2022/04/30 11:34:11;;;;;;;10.77;5.00;;;17.40;98.90;;;;;;5050452;28;20057;-70
2022/04/30 11:36:38;;;;;;;;;;;17.30;97.70;;;;;;5051289;28;20059;-71
2022/04/30 11:39:04;;;;;;;7.75;4.50;;;16.70;97.90;;;;;;5049694;28;20318;-71
2022/04/30 11:41:30;;;;;;;7.47;4.60;;;16.30;99.40;;;;;;5032696;28;20098;-70
2022/04/30 11:43:59;;;;;;;10.20;4.45;;;16.40;99.30;;;;;;5050259;28;20392;-72
2022/04/30 11:46:25;;;;;;;6.70;5.53;;;16.20;99.40;;;;;;5049731;28;20053;-72
2022/04/30 11:48:50;;;;;;;5.45;4.07;;;16.00;99.50;;;;;;5049856;28;20048;-71
2022/04/30 11:51:18;;;;;;;10.55;4.93;;;16.50;99.70;;;;;;5051082;28;20047;-71
2022/04/30 11:53:44;;;;;;;8.63;4.57;;;16.80;96.50;;;;;;5061065;28;20049;-71
2022/04/30 11:56:09;;;;;;;5.20;4.40;;;17.00;97.20;;;;;;5069563;28;20028;-72
2022/04/30 11:58:43;;;;;;;9.10;4.10;;;17.50;96.50;;;;;;5068706;28;20580;-71
2022/04/30 12:01:25;;;;;;;8.73;5.18;;;17.40;96.90;;;;;;5052146;28;20041;-71
2022/04/30 12:04:08;;;;;;;5.85;5.03;;;18.00;96.00;;;;;;5054315;28;20028;-71
2022/04/30 12:06:34;;;;;;;6.63;3.97;;;17.90;96.60;;;;;;5043474;28;20067;-71
2022/04/30 12:09:11;;;;;;;9.85;4.65;;;17.10;95.40;;;;;;5060282;28;20091;-71
2022/04/30 12:11:41;;;;;;;6.28;3.50;;;16.60;94.30;;;;;;5034292;28;20036;-71
2022/04/30 12:14:09;;;;;;;11.68;3.58;;;16.50;95.00;;;;;;5069599;28;20043;-71
2022/04/30 12:16:40;;;;;;;7.47;4.05;;;16.30;95.40;;;;;;5063419;28;20440;-70
2022/04/30 12:25:03;;;;;;;5.30;3.70;;;16.40;94.70;;;;;;5073817;28;20047;-70
2022/04/30 12:27:29;;;;;;;7.75;3.90;;;16.50;93.60;;;;;;5073612;28;20531;-71
2022/04/30 12:30:09;;;;;;;7.53;3.40;;;16.90;93.10;;;;;;5073442;28;20558;-71
2022/04/30 12:32:46;;;;;;;5.60;2.92;;;17.80;94.80;;;;;;5075766;28;20032;-71
2022/04/30 12:35:23;;;;;;;5.10;3.10;;;18.40;93.70;;;;;;5074014;28;20036;-71
2022/04/30 12:38:00;;;;;;;6.80;3.80;;;18.50;93.70;;;;;;5072818;28;20040;-71
2022/04/30 12:40:25;;;;;;;10.20;3.90;;;17.90;92.40;;;;;;5073296;28;20098;-71
2022/04/30 12:42:51;;;;;;;8.98;4.35;;;18.50;94.00;;;;;;5073924;28;20040;-71
2022/04/30 12:45:17;;;;;;;6.97;3.83;;;18.20;94.10;;;;;;5074006;28;20070;-71
2022/04/30 12:47:43;;;;;;;12.32;4.97;;;;;;;;;;5074060;28;20412;-71
2022/04/30 12:50:09;;;;;;;10.82;4.40;;;19.60;93.90;;;;;;5072217;28;20051;-71
2022/04/30 12:52:35;;;;;;;9.18;3.80;;;19.50;93.50;;;;;;5072838;28;20123;-71
2022/04/30 12:55:00;;;;;;;7.30;3.63;;;19.60;93.00;;;;;;5073434;28;20040;-71
2022/04/30 12:57:26;;;;;;;5.07;4.28;;;19.50;92.10;;;;;;5073525;28;20404;-71
2022/04/30 12:59:53;;;;;;;9.73;4.18;;;19.00;93.30;;;;;;5071735;28;20608;-71
2022/04/30 13:02:22;;;;;;;7.35;3.95;;;18.90;92.70;;;;;;5073106;28;20028;-72
2022/04/30 13:04:50;;;;;;;14.35;5.10;;;19.20;90.60;;;;;;5072650;28;20068;-72
2022/04/30 13:07:17;;;;;;;5.03;3.88;;;18.50;93.10;;;;;;5054643;28;20040;-72
2022/04/30 13:15:11;;;;;;;8.68;4.78;;;17.00;93.30;;;;;;5071444;28;20083;-71
2022/04/30 13:17:38;;;;;;;9.05;4.45;;;17.20;93.60;;;;;;5072749;28;20086;-72
2022/04/30 13:20:05;;;;;;;7.63;5.03;;;17.90;94.30;;;;;;5072572;28;20499;-72
2022/04/30 13:22:32;;;;;;;7.05;3.80;;;18.00;93.60;;;;;;5050520;28;20045;-72
2022/04/30 13:24:58;;;;;;;6.28;3.70;;;18.00;92.90;;;;;;5052616;28;20109;-72
2022/04/30 13:27:24;;;;;;;10.45;4.68;;;18.30;92.50;;;;;;5059494;28;20048;-72
2022/04/30 13:29:51;;;;;;;7.97;4.00;;;18.20;92.00;;;;;;5070616;28;20037;-72
2022/04/30 13:32:16;;;;;;;5.82;3.42;;;18.50;91.70;;;;;;5071003;28;20415;-72
2022/04/30 13:34:42;;;;;;;7.18;3.92;;;18.40;90.80;;;;;;5070989;28;20037;-72
2022/04/30 13:37:09;;;;;;;4.78;3.08;;;18.40;91.70;;;;;;5072055;28;20048;-72
2022/04/30 13:39:35;;;;;;;7.55;4.55;;;18.90;88.30;;;;;;5072495;28;20043;-71
2022/04/30 13:42:01;;;;;;;7.00;5.35;;;18.30;91.00;;;;;;5060971;28;20045;-72